Time;durP1;ratioP1;P1;durP2;ratioP2;P2;SDS_P1;SDS_P2;PMS_P1;PMS_P2;Temp;Humidity;BMP_temperature;BMP_pressure;BME280_temperature;BME280_humidity;BME280_pressure;Samples;Min_cycle;Max_cycle;Signal;HPM_P1;HPM_P2
2022/07/29 00:02:14;;;;;;;61.00;4.87;;;;;;;;;;5118472;28;20450;-67
2022/07/29 00:04:41;;;;;;;59.60;4.40;;;;;;;;;;5118610;28;20532;-67
2022/07/29 00:07:08;;;;;;;59.87;4.30;;;;;;;;;;5118238;28;20544;-67
2022/07/29 00:09:35;;;;;;;60.63;4.60;;;;;;;;;;5117652;28;20568;-67
2022/07/29 00:12:02;;;;;;;59.30;4.37;;;;;;;;;;5118233;28;20460;-67
2022/07/29 00:14:30;;;;;;;61.17;4.43;;;;;;;;;;5118074;28;21035;-67
2022/07/29 00:16:58;;;;;;;59.63;4.13;;;;;;;;;;5118483;28;20536;-67
2022/07/29 00:19:26;;;;;;;60.50;4.40;;;;;;;;;;5117743;28;20438;-67
2022/07/29 00:21:53;;;;;;;61.27;4.73;;;;;;;;;;5118396;28;20468;-67
2022/07/29 00:24:20;;;;;;;60.67;4.77;;;;;;;;;;5118293;28;20457;-67
2022/07/29 00:26:47;;;;;;;66.17;5.30;;;;;;;;;;5117817;28;20444;-67
2022/07/29 00:29:14;;;;;;;60.07;4.43;;;;;;;;;;5118059;28;20926;-67
2022/07/29 00:31:41;;;;;;;59.70;4.53;;;;;;;;;;5117870;28;20472;-67
2022/07/29 00:35:43;;;;;;;60.50;4.80;;;;;;;;;;5117718;28;20450;-67
2022/07/29 00:36:56;;;;;;;61.33;4.53;;;;;;;;;;5117654;28;20446;-67
2022/07/29 00:39:23;;;;;;;61.37;4.80;;;;;;;;;;5117614;28;20434;-67
2022/07/29 00:41:50;;;;;;;60.23;4.23;;;;;;;;;;5117680;28;20453;-67
2022/07/29 00:44:17;;;;;;;61.33;5.00;;;;;;;;;;5117562;28;20829;-67
2022/07/29 00:46:45;;;;;;;61.77;5.30;;;;;;;;;;5117557;28;20442;-67
2022/07/29 00:49:14;;;;;;;60.30;4.33;;;;;;;;;;5117127;28;20492;-67
2022/07/29 00:51:41;;;;;;;61.57;4.60;;;;;;;;;;5116632;27;20472;-67
2022/07/29 00:54:08;;;;;;;61.10;5.17;;;;;;;;;;5116769;28;20953;-67
2022/07/29 00:56:35;;;;;;;60.40;4.70;;;;;;;;;;5117358;28;20485;-67
2022/07/29 00:59:03;;;;;;;60.60;4.90;;;;;;;;;;5117271;28;20454;-67
2022/07/29 01:01:30;;;;;;;59.50;3.90;;;;;;;;;;5117547;28;20825;-67
2022/07/29 01:03:57;;;;;;;60.70;4.67;;;;;;;;;;5117339;28;20450;-67
2022/07/29 01:06:26;;;;;;;60.83;5.43;;;;;;;;;;5116988;27;20450;-67
2022/07/29 01:08:54;;;;;;;59.70;4.13;;;;;;;;;;5116412;28;20572;-67
2022/07/29 01:11:21;;;;;;;60.00;4.30;;;;;;;;;;5117099;28;20831;-67
2022/07/29 01:13:49;;;;;;;59.87;4.10;;;;;;;;;;5116848;28;20813;-67
2022/07/29 01:16:19;;;;;;;60.13;4.33;;;;;;;;;;5117188;28;20447;-67
2022/07/29 01:18:49;;;;;;;60.20;4.70;;;;;;;;;;5116484;28;20445;-67
2022/07/29 01:21:26;;;;;;;65.40;5.50;;;;;;;;;;5115498;28;20489;-67
2022/07/29 01:24:05;;;;;;;60.17;4.60;;;;;;;;;;5116966;28;20860;-67
2022/07/29 01:26:36;;;;;;;60.77;5.10;;;;;;;;;;5116364;28;20457;-67
2022/07/29 01:29:07;;;;;;;60.40;4.90;;;;;;;;;;5116530;28;20504;-67
2022/07/29 01:31:36;;;;;;;60.77;5.23;;;;;;;;;;5116863;28;20466;-67
2022/07/29 01:34:05;;;;;;;60.63;5.30;;;;;;;;;;5116819;28;20953;-67
2022/07/29 01:36:33;;;;;;;60.50;4.63;;;;;;;;;;5116676;28;20541;-67
2022/07/29 01:39:06;;;;;;;60.17;4.67;;;;;;;;;;5116128;28;20450;-67
2022/07/29 01:41:34;;;;;;;60.73;5.00;;;;;;;;;;5116305;27;20461;-67
2022/07/29 01:44:03;;;;;;;59.90;4.30;;;;;;;;;;5116840;28;20446;-67
2022/07/29 01:46:34;;;;;;;64.90;4.87;;;;;;;;;;5116316;28;20953;-67
2022/07/29 01:49:03;;;;;;;60.07;4.60;;;;;;;;;;5116148;28;20478;-67
2022/07/29 01:51:33;;;;;;;60.77;5.10;;;;;;;;;;5116794;28;20488;-67
2022/07/29 01:54:03;;;;;;;60.30;4.50;;;;;;;;;;5116287;28;20473;-67
2022/07/29 01:56:33;;;;;;;60.20;4.97;;;;;;;;;;5116183;28;20449;-67
2022/07/29 01:59:01;;;;;;;60.90;5.00;;;;;;;;;;5115583;28;20446;-67
2022/07/29 02:01:28;;;;;;;62.20;5.20;;;;;;;;;;5115749;28;20462;-67
2022/07/29 02:03:58;;;;;;;60.50;4.90;;;;;;;;;;5115629;28;20445;-67
2022/07/29 02:06:27;;;;;;;60.80;4.73;;;;;;;;;;5115946;28;20532;-67
2022/07/29 02:08:54;;;;;;;60.50;5.20;;;;;;;;;;5115550;28;20454;-67
2022/07/29 02:11:21;;;;;;;64.90;5.40;;;;;;;;;;5115689;28;20466;-67
2022/07/29 02:13:49;;;;;;;61.50;4.60;;;;;;;;;;5115871;27;20477;-67
2022/07/29 02:16:16;;;;;;;61.97;4.57;;;;;;;;;;5115471;28;20460;-67
2022/07/29 02:18:45;;;;;;;63.27;5.03;;;;;;;;;;5115520;28;20442;-67
2022/07/29 02:21:14;;;;;;;60.50;4.80;;;;;;;;;;5114846;28;20466;-67
2022/07/29 02:23:41;;;;;;;60.30;5.20;;;;;;;;;;5115666;28;20441;-67
2022/07/29 02:26:10;;;;;;;61.00;5.37;;;;;;;;;;5115946;28;20445;-67
2022/07/29 02:28:37;;;;;;;60.37;4.93;;;;;;;;;;5115191;28;20941;-67
2022/07/29 02:31:06;;;;;;;60.40;5.00;;;;;;;;;;5115033;28;20495;-67
2022/07/29 02:33:34;;;;;;;60.70;5.00;;;;;;;;;;5115975;28;20521;-67
2022/07/29 02:36:03;;;;;;;61.00;4.33;;;;;;;;;;5115894;28;20879;-67
2022/07/29 02:38:51;;;;;;;59.97;4.50;;;;;;;;;;5114815;28;20456;-67
2022/07/29 02:41:20;;;;;;;61.30;5.20;;;;;;;;;;5114772;28;20569;-67
2022/07/29 02:43:49;;;;;;;60.40;4.97;;;;;;;;;;5115305;28;20449;-67
2022/07/29 02:46:20;;;;;;;60.70;5.20;;;;;;;;;;5115446;28;20441;-67
2022/07/29 02:48:53;;;;;;;61.40;5.77;;;;;;;;;;5115331;28;20812;-67
2022/07/29 02:51:24;;;;;;;62.17;5.67;;;;;;;;;;5114724;28;20499;-67
2022/07/29 02:53:54;;;;;;;60.87;5.70;;;;;;;;;;5115176;28;20457;-67
2022/07/29 02:56:25;;;;;;;61.17;5.27;;;;;;;;;;5115097;28;20455;-67
2022/07/29 02:58:56;;;;;;;59.97;4.47;;;;;;;;;;5114759;28;20820;-67
2022/07/29 03:01:24;;;;;;;67.93;6.10;;;;;;;;;;5115173;28;20501;-67
2022/07/29 03:03:53;;;;;;;64.67;5.83;;;;;;;;;;5115272;28;20445;-67
2022/07/29 03:06:21;;;;;;;60.60;5.30;;;;;;;;;;5115561;28;20540;-67
2022/07/29 03:08:48;;;;;;;60.37;5.23;;;;;;;;;;5114362;28;20450;-67
2022/07/29 03:11:18;;;;;;;61.53;5.40;;;;;;;;;;5115225;28;20861;-67
2022/07/29 03:13:45;;;;;;;61.73;5.87;;;;;;;;;;5115256;28;20449;-67
2022/07/29 03:16:13;;;;;;;60.57;5.60;;;;;;;;;;5114297;28;20452;-67
2022/07/29 03:18:41;;;;;;;61.43;6.07;;;;;;;;;;5113408;28;20495;-67
2022/07/29 03:21:08;;;;;;;62.50;5.63;;;;;;;;;;5114634;28;21004;-67
2022/07/29 03:23:35;;;;;;;61.73;5.70;;;;;;;;;;5115079;28;20445;-67
2022/07/29 03:26:02;;;;;;;60.90;5.60;;;;;;;;;;5114871;28;20478;-67
2022/07/29 03:28:31;;;;;;;61.00;5.93;;;;;;;;;;5115262;28;20473;-67
2022/07/29 03:30:58;;;;;;;61.50;5.70;;;;;;;;;;5114372;28;20487;-67
2022/07/29 03:33:25;;;;;;;60.33;5.17;;;;;;;;;;5115105;28;20798;-67
2022/07/29 03:35:53;;;;;;;62.30;5.67;;;;;;;;;;5114954;28;20817;-67
2022/07/29 03:38:20;;;;;;;60.87;5.17;;;;;;;;;;5114315;28;20513;-67
2022/07/29 03:40:50;;;;;;;62.47;5.80;;;;;;;;;;5114426;28;20624;-67
2022/07/29 03:43:18;;;;;;;60.60;5.60;;;;;;;;;;5114589;28;20502;-67
2022/07/29 03:45:48;;;;;;;62.40;5.93;;;;;;;;;;5113985;28;20449;-67
2022/07/29 03:48:18;;;;;;;61.47;5.20;;;;;;;;;;5114292;28;20450;-68
2022/07/29 03:50:46;;;;;;;62.40;5.67;;;;;;;;;;5114329;28;20482;-68
2022/07/29 03:53:13;;;;;;;61.30;5.43;;;;;;;;;;5114967;28;20442;-67
2022/07/29 03:55:43;;;;;;;60.70;5.43;;;;;;;;;;5114831;28;20448;-67
2022/07/29 03:58:10;;;;;;;61.00;4.93;;;;;;;;;;5114103;28;20441;-67
2022/07/29 04:00:37;;;;;;;60.40;5.30;;;;;;;;;;5114199;28;20812;-67
2022/07/29 04:03:06;;;;;;;60.90;5.50;;;;;;;;;;5115042;28;20463;-67
2022/07/29 04:05:33;;;;;;;61.90;5.43;;;;;;;;;;5114655;28;20441;-67
2022/07/29 04:08:01;;;;;;;61.87;5.70;;;;;;;;;;5114454;28;20443;-67
2022/07/29 04:10:28;;;;;;;62.60;4.83;;;;;;;;;;5114930;28;20568;-67
2022/07/29 04:12:55;;;;;;;60.67;5.47;;;;;;;;;;5114685;28;20819;-67
2022/07/29 04:15:22;;;;;;;64.27;6.20;;;;;;;;;;5114975;28;20450;-67
2022/07/29 04:17:49;;;;;;;62.27;5.70;;;;;;;;;;5114733;28;20813;-67
2022/07/29 04:20:18;;;;;;;60.53;4.70;;;;;;;;;;5114325;28;20462;-67
2022/07/29 04:22:45;;;;;;;62.07;5.37;;;;;;;;;;5114670;28;20811;-67
2022/07/29 04:25:12;;;;;;;60.67;5.50;;;;;;;;;;5114420;28;20456;-67
2022/07/29 04:27:59;;;;;;;60.30;4.90;;;;;;;;;;5115969;28;20444;-67
2022/07/29 04:30:26;;;;;;;61.97;5.47;;;;;;;;;;5117802;28;20482;-67
2022/07/29 04:32:53;;;;;;;61.57;5.70;;;;;;;;;;5117807;28;20456;-67
2022/07/29 04:35:22;;;;;;;60.40;5.17;;;;;;;;;;5117885;28;20845;-67
2022/07/29 04:37:49;;;;;;;60.77;4.50;;;;;;;;;;5117756;28;20446;-67
2022/07/29 04:40:16;;;;;;;60.77;5.07;;;;;;;;;;5117265;28;20467;-67
2022/07/29 04:42:44;;;;;;;60.30;4.70;;;;;;;;;;5117719;28;20841;-67
2022/07/29 04:45:11;;;;;;;60.30;4.93;;;;;;;;;;5117164;28;20537;-67
2022/07/29 04:47:38;;;;;;;61.17;5.00;;;;;;;;;;5117620;28;20447;-67
2022/07/29 04:50:06;;;;;;;61.17;5.00;;;;;;;;;;5116332;28;21092;-67
2022/07/29 04:52:35;;;;;;;61.30;5.00;;;;;;;;;;5117394;28;20445;-67
2022/07/29 04:55:02;;;;;;;66.80;6.67;;;;;;;;;;5117365;28;20445;-67
2022/07/29 04:57:29;;;;;;;60.80;5.47;;;;;;;;;;5117215;28;20445;-67
2022/07/29 04:59:56;;;;;;;61.37;6.07;;;;;;;;;;5117079;28;20827;-67
2022/07/29 05:02:23;;;;;;;62.53;5.10;;;;;;;;;;5117084;28;20442;-67
2022/07/29 05:04:50;;;;;;;63.53;5.90;;;;;;;;;;5116631;27;20452;-67
2022/07/29 05:07:18;;;;;;;61.37;5.20;;;;;;;;;;5116727;28;20442;-67
2022/07/29 05:09:46;;;;;;;61.37;6.00;;;;;;;;;;5116350;28;20452;-67
2022/07/29 05:12:13;;;;;;;60.30;5.27;;;;;;;;;;5116906;28;20452;-67
2022/07/29 05:14:40;;;;;;;59.93;5.00;;;;;;;;;;5116648;28;20442;-67
2022/07/29 05:17:07;;;;;;;62.07;4.80;;;;;;;;;;5116548;27;20446;-67
2022/07/29 05:19:35;;;;;;;60.33;5.23;;;;;;;;;;5115665;28;20949;-67
2022/07/29 05:22:02;;;;;;;61.30;5.50;;;;;;;;;;5116565;28;20433;-67
2022/07/29 05:24:29;;;;;;;61.07;6.33;;;;;;;;;;5116400;28;20441;-67
2022/07/29 05:26:57;;;;;;;60.37;4.60;;;;;;;;;;5116065;28;20478;-67
2022/07/29 05:29:24;;;;;;;60.70;5.20;;;;;;;;;;5115933;28;20833;-67
2022/07/29 05:31:52;;;;;;;60.83;5.10;;;;;;;;;;5116016;28;20486;-67
2022/07/29 05:34:19;;;;;;;61.70;5.23;;;;;;;;;;5115692;27;20459;-67
2022/07/29 05:36:47;;;;;;;60.83;5.27;;;;;;;;;;5116225;28;20454;-67
2022/07/29 05:39:14;;;;;;;61.30;5.00;;;;;;;;;;5114841;28;20447;-67
2022/07/29 05:41:41;;;;;;;63.87;4.93;;;;;;;;;;5115611;27;20540;-67
2022/07/29 05:44:09;;;;;;;59.87;5.00;;;;;;;;;;5116107;28;20441;-67
2022/07/29 05:46:36;;;;;;;60.27;4.83;;;;;;;;;;5115289;28;20515;-67
2022/07/29 05:49:04;;;;;;;65.90;5.43;;;;;;;;;;5115207;28;20446;-67
2022/07/29 05:51:31;;;;;;;61.57;5.13;;;;;;;;;;5115697;28;20988;-67
2022/07/29 05:53:58;;;;;;;62.47;5.17;;;;;;;;;;5115677;28;20453;-67
2022/07/29 05:56:25;;;;;;;60.27;4.50;;;;;;;;;;5115077;28;20446;-67
2022/07/29 05:58:52;;;;;;;60.20;5.20;;;;;;;;;;5114393;27;20849;-67
2022/07/29 06:01:21;;;;;;;61.77;5.60;;;;;;;;;;5114579;28;20520;-67
2022/07/29 06:03:48;;;;;;;62.17;5.03;;;;;;;;;;5115079;28;20447;-67
2022/07/29 06:06:15;;;;;;;59.70;4.67;;;;;;;;;;5115067;28;20725;-67
2022/07/29 06:08:42;;;;;;;60.13;4.50;;;;;;;;;;5114220;28;20956;-67
2022/07/29 06:11:10;;;;;;;59.77;4.30;;;;;;;;;;5114436;28;20483;-67
2022/07/29 06:13:37;;;;;;;60.50;4.60;;;;;;;;;;5114266;28;20968;-67
2022/07/29 06:16:04;;;;;;;60.90;4.63;;;;;;;;;;5115006;28;20541;-67
2022/07/29 06:18:32;;;;;;;59.90;4.33;;;;;;;;;;5114701;28;20446;-67
2022/07/29 06:21:00;;;;;;;59.37;3.83;;;;;;;;;;5114188;28;20459;-68
2022/07/29 06:23:27;;;;;;;62.97;4.23;;;;;;;;;;5115398;28;20452;-68
2022/07/29 06:25:54;;;;;;;59.47;3.83;;;;;;;;;;5114588;28;20470;-68
2022/07/29 06:28:21;;;;;;;59.50;4.27;;;;;;;;;;5113778;28;20443;-67
2022/07/29 06:30:48;;;;;;;59.50;3.90;;;;;;;;;;5113907;28;20669;-67
2022/07/29 06:33:18;;;;;;;63.27;5.43;;;;;;;;;;5113679;28;20457;-67
2022/07/29 06:35:47;;;;;;;59.67;4.53;;;;;;;;;;5114066;28;20817;-67
2022/07/29 06:38:14;;;;;;;59.07;3.80;;;;;;;;;;5113766;28;20851;-68
2022/07/29 06:41:01;;;;;;;60.47;4.03;;;;;;;;;;5113804;28;20456;-68
2022/07/29 06:43:31;;;;;;;59.00;3.73;;;;;;;;;;5113662;28;20986;-68
2022/07/29 06:45:58;;;;;;;60.00;4.30;;;;;;;;;;5113788;28;20455;-68
2022/07/29 06:48:25;;;;;;;60.80;3.87;;;;;;;;;;5113411;28;20454;-68
2022/07/29 06:50:54;;;;;;;59.80;3.97;;;;;;;;;;5112456;27;20488;-68
2022/07/29 06:53:21;;;;;;;59.50;3.97;;;;;;;;;;5113640;28;20448;-68
2022/07/29 06:55:48;;;;;;;62.87;4.40;;;;;;;;;;5114117;28;20503;-68
2022/07/29 06:58:17;;;;;;;59.87;4.17;;;;;;;;;;5113870;28;20468;-68
2022/07/29 07:00:45;;;;;;;59.53;3.47;;;;;;;;;;5113396;27;20464;-68
2022/07/29 07:03:12;;;;;;;60.57;4.27;;;;;;;;;;5114264;28;20452;-68
2022/07/29 07:05:39;;;;;;;59.03;3.27;;;;;;;;;;5113463;28;20492;-68
2022/07/29 07:08:08;;;;;;;59.97;4.53;;;;;;;;;;5113570;28;20930;-68
2022/07/29 07:10:35;;;;;;;58.87;3.83;;;;;;;;;;5113276;28;20489;-68
2022/07/29 07:13:02;;;;;;;59.33;3.80;;;;;;;;;;5113352;28;20444;-68
2022/07/29 07:15:30;;;;;;;58.77;3.40;;;;;;;;;;5113453;28;20449;-67
2022/07/29 07:17:57;;;;;;;59.60;3.83;;;;;;;;;;5113908;28;20448;-68
2022/07/29 07:20:25;;;;;;;59.30;3.50;;;;;;;;;;5113094;28;20877;-68
2022/07/29 07:22:52;;;;;;;59.17;3.73;;;;;;;;;;5113715;28;20452;-68
2022/07/29 07:25:20;;;;;;;58.87;3.10;;;;;;;;;;5114380;28;20452;-68
2022/07/29 07:27:48;;;;;;;58.90;3.47;;;;;;;;;;5113882;28;20484;-68
2022/07/29 07:30:15;;;;;;;59.60;4.00;;;;;;;;;;5113197;28;20466;-67
2022/07/29 07:32:42;;;;;;;59.37;3.80;;;;;;;;;;5113416;28;20481;-68
2022/07/29 07:35:10;;;;;;;59.50;3.40;;;;;;;;;;5113845;28;20445;-68
2022/07/29 07:37:37;;;;;;;58.93;3.53;;;;;;;;;;5114164;28;20571;-68
2022/07/29 07:40:05;;;;;;;59.17;3.90;;;;;;;;;;5113718;28;20469;-68
2022/07/29 07:42:33;;;;;;;58.70;3.20;;;;;;;;;;5113708;28;20530;-68
2022/07/29 07:45:01;;;;;;;58.53;3.00;;;;;;;;;;5113560;28;20852;-68
2022/07/29 07:47:28;;;;;;;58.73;3.30;;;;;;;;;;5113478;28;20454;-68
2022/07/29 07:49:55;;;;;;;58.57;3.50;;;;;;;;;;5112779;28;20483;-67
2022/07/29 07:52:22;;;;;;;59.20;3.60;;;;;;;;;;5113233;28;20485;-68
2022/07/29 07:54:50;;;;;;;57.67;3.03;;;;;;;;;;5113329;28;20447;-68
2022/07/29 07:57:17;;;;;;;59.30;3.23;;;;;;;;;;5112952;28;20484;-68
2022/07/29 07:59:46;;;;;;;58.70;3.10;;;;;;;;;;5112494;28;20524;-68
2022/07/29 08:02:13;;;;;;;58.87;3.10;;;;;;;;;;5114662;28;20447;-68
2022/07/29 08:04:40;;;;;;;58.60;3.40;;;;;;;;;;5116939;28;20445;-68
2022/07/29 08:07:08;;;;;;;58.77;4.10;;;;;;;;;;5117046;28;20449;-68
2022/07/29 08:09:35;;;;;;;58.60;3.33;;;;;;;;;;5116716;28;20824;-67
2022/07/29 08:12:03;;;;;;;58.70;3.53;;;;;;;;;;5117166;28;20499;-67
2022/07/29 08:14:30;;;;;;;59.40;3.50;;;;;;;;;;5117787;28;20452;-68
2022/07/29 08:16:59;;;;;;;58.07;3.37;;;;;;;;;;5118640;28;20441;-68
2022/07/29 08:19:26;;;;;;;60.40;3.70;;;;;;;;;;5117181;28;20796;-68
2022/07/29 08:21:53;;;;;;;59.50;3.17;;;;;;;;;;5117349;28;20758;-68
2022/07/29 08:27:05;;;;;;;59.97;3.60;;;;;;;;;;5116756;28;20444;-68
2022/07/29 08:29:32;;;;;;;59.20;3.87;;;;;;;;;;5116478;28;20446;-68
2022/07/29 08:32:00;;;;;;;58.57;3.33;;;;;;;;;;5116924;28;20493;-68
2022/07/29 08:34:28;;;;;;;58.83;3.50;;;;;;;;;;5116779;28;20438;-68
2022/07/29 08:36:55;;;;;;;60.67;3.50;;;;;;;;;;5117435;28;20449;-68
2022/07/29 08:39:22;;;;;;;59.00;3.50;;;;;;;;;;5116264;28;20800;-67
2022/07/29 08:41:50;;;;;;;58.77;3.43;;;;;;;;;;5116816;28;20458;-68
2022/07/29 08:44:17;;;;;;;59.03;4.03;;;;;;;;;;5116876;28;20823;-68
2022/07/29 08:46:45;;;;;;;59.10;3.67;;;;;;;;;;5116798;27;20446;-68
2022/07/29 08:49:13;;;;;;;59.00;3.20;;;;;;;;;;5116432;27;20446;-68
2022/07/29 08:51:41;;;;;;;58.80;3.77;;;;;;;;;;5117040;28;20488;-68
2022/07/29 08:54:09;;;;;;;59.40;3.93;;;;;;;;;;5116408;28;20447;-68
2022/07/29 08:56:37;;;;;;;59.30;2.97;;;;;;;;;;5117165;28;20450;-68
2022/07/29 08:59:05;;;;;;;59.20;3.10;;;;;;;;;;5116818;28;20441;-68
2022/07/29 09:01:34;;;;;;;58.90;3.40;;;;;;;;;;5117826;28;20469;-68
2022/07/29 09:04:02;;;;;;;58.83;3.37;;;;;;;;;;5117575;28;20649;-68
2022/07/29 09:06:33;;;;;;;58.97;3.70;;;;;;;;;;5116379;28;20456;-68
2022/07/29 09:09:01;;;;;;;59.53;3.70;;;;;;;;;;5116638;28;20485;-68
2022/07/29 09:11:28;;;;;;;59.00;3.60;;;;;;;;;;5116723;28;20485;-68
2022/07/29 09:13:55;;;;;;;59.63;3.73;;;;;;;;;;5115749;28;20449;-68
2022/07/29 09:16:22;;;;;;;58.47;2.93;;;;;;;;;;5116174;28;20442;-68
2022/07/29 09:18:49;;;;;;;59.80;4.30;;;;;;;;;;5116374;28;20813;-68
2022/07/29 09:24:08;;;;;;;59.07;3.40;;;;;;;;;;5116499;28;20915;-68
2022/07/29 09:26:36;;;;;;;58.47;3.13;;;;;;;;;;5116678;28;20449;-68
2022/07/29 09:29:09;;;;;;;59.07;3.40;;;;;;;;;;5115814;28;20465;-68
2022/07/29 09:31:38;;;;;;;60.47;3.60;;;;;;;;;;5116492;28;20848;-68
2022/07/29 09:34:06;;;;;;;59.40;3.40;;;;;;;;;;5116905;27;20444;-68
2022/07/29 09:36:39;;;;;;;59.90;3.37;;;;;;;;;;5116414;28;20537;-68
2022/07/29 09:39:08;;;;;;;59.20;3.50;;;;;;;;;;5115647;28;20940;-68
2022/07/29 09:41:49;;;;;;;60.17;3.53;;;;;;;;;;5115917;27;20991;-68
2022/07/29 09:44:16;;;;;;;59.07;3.63;;;;;;;;;;5115151;28;20808;-68
2022/07/29 09:46:53;;;;;;;58.77;3.50;;;;;;;;;;5116296;28;20532;-68
2022/07/29 09:49:21;;;;;;;60.00;3.37;;;;;;;;;;5114978;28;20457;-68
2022/07/29 09:51:48;;;;;;;59.40;3.20;;;;;;;;;;5115120;28;20481;-68
2022/07/29 09:54:26;;;;;;;58.33;3.20;;;;;;;;;;5115747;28;20452;-68
2022/07/29 09:56:54;;;;;;;63.33;4.60;;;;;;;;;;5115600;28;20859;-68
2022/07/29 09:59:24;;;;;;;58.37;3.33;;;;;;;;;;5115559;28;20879;-68
2022/07/29 10:01:51;;;;;;;58.90;3.60;;;;;;;;;;5115863;28;20457;-68
2022/07/29 10:04:19;;;;;;;60.10;3.83;;;;;;;;;;5115660;28;20454;-68
2022/07/29 10:06:59;;;;;;;59.17;3.80;;;;;;;;;;5115494;28;20445;-68
2022/07/29 10:09:28;;;;;;;58.60;3.40;;;;;;;;;;5115579;28;20987;-68
2022/07/29 10:12:14;;;;;;;59.67;3.37;;;;;;;;;;5115513;28;20489;-68
2022/07/29 10:14:41;;;;;;;59.20;3.80;;;;;;;;;;5115587;28;20463;-68
2022/07/29 10:17:09;;;;;;;58.60;3.47;;;;;;;;;;5114734;28;20444;-68
2022/07/29 10:19:37;;;;;;;58.50;3.40;;;;;;;;;;5113595;28;20442;-68
2022/07/29 10:22:05;;;;;;;61.00;3.30;;;;;;;;;;5114608;28;20473;-68
2022/07/29 10:24:35;;;;;;;58.70;3.50;;;;;;;;;;5115129;28;20447;-68
2022/07/29 10:27:02;;;;;;;58.60;3.50;;;;;;;;;;5115327;28;20941;-66
2022/07/29 10:29:31;;;;;;;59.27;3.90;;;;;;;;;;5114407;28;20444;-66
2022/07/29 10:32:13;;;;;;;58.57;3.27;;;;;;;;;;5115196;28;20473;-66
2022/07/29 10:34:50;;;;;;;58.33;3.47;;;;;;;;;;5112744;28;20541;-66
2022/07/29 10:37:20;;;;;;;58.80;3.77;;;;;;;;;;5114895;28;20445;-66
2022/07/29 10:39:55;;;;;;;59.03;3.93;;;;;;;;;;5115594;28;20457;-66
2022/07/29 10:42:23;;;;;;;59.13;3.70;;;;;;;;;;5115225;28;20433;-66
2022/07/29 10:44:51;;;;;;;58.30;3.03;;;;;;;;;;5114885;28;20862;-66
2022/07/29 10:47:23;;;;;;;63.90;3.80;;;;;;;;;;5114657;28;20449;-68
2022/07/29 10:50:00;;;;;;;58.80;3.20;;;;;;;;;;5114335;28;20465;-68
2022/07/29 10:52:53;;;;;;;59.67;3.80;;;;;;;;;;5114729;28;20481;-68
2022/07/29 10:55:44;;;;;;;58.50;3.50;;;;;;;;;;5114795;28;20477;-68
2022/07/29 10:58:17;;;;;;;59.17;3.57;;;;;;;;;;5110681;28;21018;-68
2022/07/29 11:00:44;;;;;;;58.60;3.53;;;;;;;;;;5114347;28;20916;-68
2022/07/29 11:03:37;;;;;;;59.57;2.90;;;;;;;;;;5114510;28;20460;-68
2022/07/29 11:06:04;;;;;;;59.17;3.77;;;;;;;;;;5114675;28;20825;-68
2022/07/29 11:08:31;;;;;;;63.20;3.70;;;;;;;;;;5115060;28;20449;-68
2022/07/29 11:11:17;;;;;;;59.30;3.83;;;;;;;;;;5114858;28;20469;-68
2022/07/29 11:13:50;;;;;;;59.73;3.87;;;;;;;;;;5114541;28;20837;-68
2022/07/29 11:16:17;;;;;;;59.80;3.90;;;;;;;;;;5115326;28;20517;-68
2022/07/29 11:19:03;;;;;;;60.40;4.57;;;;;;;;;;5114832;28;20815;-68
2022/07/29 11:21:37;;;;;;;59.20;3.40;;;;;;;;;;5114339;28;20548;-68
2022/07/29 11:24:14;;;;;;;59.80;3.93;;;;;;;;;;5114318;28;20445;-68
2022/07/29 11:26:42;;;;;;;59.40;4.13;;;;;;;;;;5114691;28;20445;-67
2022/07/29 11:29:19;;;;;;;59.93;3.70;;;;;;;;;;5113597;28;20456;-67
2022/07/29 11:31:48;;;;;;;60.70;4.20;;;;;;;;;;5113804;28;20556;-68
2022/07/29 11:37:22;;;;;;;59.67;3.80;;;;;;;;;;5113352;28;20896;-68
2022/07/29 11:40:04;;;;;;;62.87;5.10;;;;;;;;;;5116947;27;20837;-69
2022/07/29 11:42:51;;;;;;;61.27;5.00;;;;;;;;;;5116449;28;20448;-69
2022/07/29 11:45:27;;;;;;;60.27;4.87;;;;;;;;;;5116880;28;20956;-68
2022/07/29 11:47:57;;;;;;;60.90;4.77;;;;;;;;;;5116648;27;20476;-69
2022/07/29 11:50:28;;;;;;;60.70;5.23;;;;;;;;;;5116724;28;20834;-68
2022/07/29 11:52:56;;;;;;;60.60;5.07;;;;;;;;;;5116626;28;21001;-69
2022/07/29 11:55:23;;;;;;;59.87;4.70;;;;;;;;;;5116690;28;20546;-69
2022/07/29 11:57:52;;;;;;;62.33;5.60;;;;;;;;;;5116563;28;20452;-69
2022/07/29 12:00:28;;;;;;;61.10;5.57;;;;;;;;;;5115915;28;20465;-69
2022/07/29 12:02:56;;;;;;;60.27;4.73;;;;;;;;;;5116871;28;20470;-69
2022/07/29 12:05:31;;;;;;;61.80;5.00;;;;;;;;;;5116342;28;20433;-68
2022/07/29 12:08:05;;;;;;;59.30;4.03;;;;;;;;;;5115972;28;20949;-69
2022/07/29 12:10:32;;;;;;;60.50;4.30;;;;;;;;;;5115600;27;20472;-69
2022/07/29 12:12:59;;;;;;;60.70;5.00;;;;;;;;;;5115899;28;20573;-68
2022/07/29 12:15:28;;;;;;;61.93;5.70;;;;;;;;;;5116415;28;20445;-69
2022/07/29 12:17:55;;;;;;;60.67;4.30;;;;;;;;;;5116339;28;20456;-68
2022/07/29 12:20:26;;;;;;;59.50;3.83;;;;;;;;;;5116278;28;20476;-68
2022/07/29 12:22:54;;;;;;;59.83;3.50;;;;;;;;;;5116745;28;20934;-68
2022/07/29 12:25:22;;;;;;;63.77;4.57;;;;;;;;;;5116179;28;20449;-68
2022/07/29 12:27:58;;;;;;;59.57;4.13;;;;;;;;;;5116687;28;20452;-68
2022/07/29 12:30:35;;;;;;;60.10;4.17;;;;;;;;;;5116193;28;20465;-68
2022/07/29 12:33:11;;;;;;;59.20;3.57;;;;;;;;;;5117199;28;20495;-68
2022/07/29 12:35:38;;;;;;;59.37;3.27;;;;;;;;;;5116818;28;20455;-68
2022/07/29 12:38:05;;;;;;;58.60;3.20;;;;;;;;;;5118342;28;20496;-68
2022/07/29 12:40:33;;;;;;;60.40;3.17;;;;;;;;;;5118333;28;20627;-68
2022/07/29 12:43:07;;;;;;;58.37;3.17;;;;;;;;;;5118057;27;20524;-68
2022/07/29 12:45:34;;;;;;;59.23;3.47;;;;;;;;;;5118645;28;20442;-68
2022/07/29 12:48:01;;;;;;;58.90;2.90;;;;;;;;;;5117335;28;20493;-68
2022/07/29 12:50:31;;;;;;;58.80;3.30;;;;;;;;;;5117702;27;20484;-68
2022/07/29 12:53:09;;;;;;;59.07;3.00;;;;;;;;;;5118335;28;20485;-68
2022/07/29 12:55:40;;;;;;;59.10;3.10;;;;;;;;;;5118204;28;20460;-68
2022/07/29 12:58:07;;;;;;;58.90;3.10;;;;;;;;;;5117957;28;20446;-68
2022/07/29 13:00:34;;;;;;;59.07;3.30;;;;;;;;;;5117073;27;20468;-68
2022/07/29 13:03:02;;;;;;;58.57;2.73;;;;;;;;;;5117138;28;20941;-68
2022/07/29 13:05:42;;;;;;;59.00;3.33;;;;;;;;;;5117464;28;20446;-68
2022/07/29 13:08:13;;;;;;;58.57;3.00;;;;;;;;;;5117383;28;20524;-68
2022/07/29 13:10:40;;;;;;;59.37;3.70;;;;;;;;;;5116734;28;20548;-68
2022/07/29 13:13:09;;;;;;;58.90;3.57;;;;;;;;;;5116779;28;20473;-68
2022/07/29 13:15:36;;;;;;;59.00;3.23;;;;;;;;;;5117065;28;20445;-68
2022/07/29 13:18:04;;;;;;;58.60;3.07;;;;;;;;;;5116700;28;20827;-68
2022/07/29 13:20:32;;;;;;;58.70;2.93;;;;;;;;;;5116421;28;20529;-68
2022/07/29 13:23:01;;;;;;;59.23;3.47;;;;;;;;;;5116709;28;20488;-68
2022/07/29 13:25:29;;;;;;;58.93;3.23;;;;;;;;;;5116413;28;20975;-68
2022/07/29 13:27:56;;;;;;;58.87;3.30;;;;;;;;;;5116294;28;21004;-68
2022/07/29 13:30:24;;;;;;;59.00;3.57;;;;;;;;;;5116314;28;20540;-68
2022/07/29 13:32:52;;;;;;;58.90;3.60;;;;;;;;;;5116079;28;20481;-68
2022/07/29 13:35:19;;;;;;;58.87;3.50;;;;;;;;;;5116112;28;20815;-68
2022/07/29 13:37:47;;;;;;;58.37;2.90;;;;;;;;;;5116385;28;20840;-68
2022/07/29 13:40:15;;;;;;;58.77;3.40;;;;;;;;;;5115434;28;20465;-68
2022/07/29 13:42:43;;;;;;;59.17;3.10;;;;;;;;;;5115096;28;20922;-67
2022/07/29 13:45:11;;;;;;;61.00;3.20;;;;;;;;;;5116094;27;20937;-68
2022/07/29 13:47:39;;;;;;;60.23;3.70;;;;;;;;;;5116178;28;20449;-68
2022/07/29 13:50:07;;;;;;;59.10;3.30;;;;;;;;;;5115825;28;21012;-68
2022/07/29 13:52:34;;;;;;;59.20;3.60;;;;;;;;;;5114865;28;20455;-69
2022/07/29 13:55:01;;;;;;;59.57;3.37;;;;;;;;;;5114811;28;20450;-69
2022/07/29 13:57:30;;;;;;;60.70;3.70;;;;;;;;;;5114580;28;20930;-69
2022/07/29 13:59:57;;;;;;;59.83;4.33;;;;;;;;;;5114066;28;20476;-69
2022/07/29 14:02:25;;;;;;;59.67;3.70;;;;;;;;;;5114007;28;20456;-68
2022/07/29 14:04:52;;;;;;;62.13;3.80;;;;;;;;;;5114001;28;20445;-68
2022/07/29 14:07:19;;;;;;;58.87;3.80;;;;;;;;;;5113757;28;20449;-68
2022/07/29 14:09:46;;;;;;;59.07;3.50;;;;;;;;;;5113693;28;20453;-68
2022/07/29 14:12:13;;;;;;;59.70;4.00;;;;;;;;;;5114341;28;20453;-68
2022/07/29 14:14:42;;;;;;;59.50;3.77;;;;;;;;;;5114724;28;20487;-68
2022/07/29 14:17:09;;;;;;;59.60;4.03;;;;;;;;;;5114678;28;20506;-68
2022/07/29 14:19:37;;;;;;;59.60;3.80;;;;;;;;;;5114591;28;20437;-68
2022/07/29 14:22:04;;;;;;;64.43;4.47;;;;;;;;;;5114785;28;20449;-68
2022/07/29 14:24:32;;;;;;;59.00;4.00;;;;;;;;;;5115242;28;20513;-68
2022/07/29 14:26:59;;;;;;;60.20;4.20;;;;;;;;;;5114902;28;20997;-68
2022/07/29 14:29:26;;;;;;;59.50;4.20;;;;;;;;;;5114749;27;20441;-68
2022/07/29 14:31:55;;;;;;;60.27;4.00;;;;;;;;;;5115335;28;20813;-68
2022/07/29 14:34:22;;;;;;;61.03;4.00;;;;;;;;;;5114774;28;20922;-68
2022/07/29 14:36:49;;;;;;;59.40;3.80;;;;;;;;;;5115150;28;20485;-68
2022/07/29 14:39:16;;;;;;;59.27;3.70;;;;;;;;;;5115489;28;20441;-68
2022/07/29 14:41:43;;;;;;;59.50;4.03;;;;;;;;;;5115343;28;20556;-68
2022/07/29 14:44:11;;;;;;;59.20;3.90;;;;;;;;;;5115274;28;20434;-68
2022/07/29 14:46:38;;;;;;;59.30;4.20;;;;;;;;;;5115270;28;20446;-68
2022/07/29 14:49:06;;;;;;;61.40;3.77;;;;;;;;;;5114296;28;20870;-68
2022/07/29 14:51:34;;;;;;;59.27;4.40;;;;;;;;;;5114598;28;20469;-68